Time;durP1;ratioP1;P1;durP2;ratioP2;P2;SDS_P1;SDS_P2;PMS_P1;PMS_P2;Temp;Humidity;BMP_temperature;BMP_pressure;BME280_temperature;BME280_humidity;BME280_pressure;Samples;Min_cycle;Max_cycle;Signal;HPM_P1;HPM_P2
2022/07/15 00:00:36;;;;;;;2.17;2.08;;;;;;;32.01;28.74;99179.62;1902905;73;28138;-61
2022/07/15 00:03:24;;;;;;;2.12;2.02;;;;;;;31.97;28.75;99175.77;1903255;73;28039;-61
2022/07/15 00:06:12;;;;;;;2.10;2.00;;;;;;;32.01;28.31;99173.23;1920009;73;28109;-61
2022/07/15 00:09:01;;;;;;;2.20;2.10;;;;;;;32.01;28.31;99173.23;1902061;73;28072;-59
2022/07/15 00:11:50;;;;;;;2.15;1.90;;;;;;;31.97;28.75;99175.77;1913849;73;28097;-59
2022/07/15 00:14:39;;;;;;;2.50;2.20;;;;;;;31.91;28.88;99169.20;1904857;73;28144;-61
2022/07/15 00:17:28;;;;;;;2.10;2.00;;;;;;;31.87;28.92;99179.27;1907270;73;28141;-60
2022/07/15 00:20:17;;;;;;;2.75;2.25;;;;;;;31.86;28.99;99178.44;1905110;73;28115;-60
2022/07/15 00:23:07;;;;;;;3.15;2.30;;;;;;;31.85;29.01;99173.20;1921020;73;28070;-62
2022/07/15 00:25:55;;;;;;;2.30;2.20;;;;;;;31.89;29.01;99177.02;1912190;73;28116;-60
2022/07/15 00:28:44;;;;;;;2.30;2.20;;;;;;;31.89;29.12;99170.90;1902753;75;28200;-61
2022/07/15 00:31:32;;;;;;;2.58;2.35;;;;;;;31.89;29.12;99170.90;1908829;73;28035;-61
2022/07/15 00:34:21;;;;;;;2.37;2.27;;;;;;;31.89;29.18;99172.84;1902005;75;28150;-62
2022/07/15 00:37:11;;;;;;;2.60;2.40;;;;;;;31.90;29.17;99174.51;1905105;73;28133;-62
2022/07/15 00:39:59;;;;;;;2.40;2.20;;;;;;;31.90;29.18;99175.90;1911900;73;28211;-60
2022/07/15 00:42:48;;;;;;;2.50;2.30;;;;;;;31.89;29.26;99166.73;1915529;73;28139;-60
2022/07/15 00:45:37;;;;;;;2.60;2.40;;;;;;;31.91;29.29;99174.19;1930243;73;28039;-60
2022/07/15 00:48:25;;;;;;;3.15;2.40;;;;;;;31.92;29.27;99168.08;1903182;73;28173;-60
2022/07/15 00:51:14;;;;;;;2.15;2.05;;;;;;;31.93;29.21;99175.27;1911145;73;28279;-60
2022/07/15 00:54:03;;;;;;;2.30;2.10;;;;;;;31.93;29.20;99173.88;1907420;73;28300;-63
2022/07/15 00:56:54;;;;;;;2.20;2.10;;;;;;;31.92;29.11;99172.25;1905271;73;28305;-62
2022/07/15 00:59:44;;;;;;;3.17;2.20;;;;;;;31.92;29.05;99167.52;1896615;73;28126;-60
2022/07/15 01:02:35;;;;;;;2.00;1.90;;;;;;;31.93;29.05;99169.71;1885423;75;28287;-61
2022/07/15 01:05:23;;;;;;;2.00;1.90;;;;;;;31.92;29.00;99168.08;1836619;76;28115;-61
2022/07/15 01:08:12;;;;;;;2.27;2.00;;;;;;;31.92;29.04;99165.30;1882168;75;28232;-61
2022/07/15 01:11:01;;;;;;;2.10;1.90;;;;;;;31.90;29.15;99167.56;1879741;75;28238;-60
2022/07/15 01:13:50;;;;;;;2.20;2.10;;;;;;;31.87;29.19;99163.44;1882956;75;28121;-61
2022/07/15 01:16:40;;;;;;;1.87;1.77;;;;;;;31.87;29.19;99166.22;1887396;75;28137;-61
2022/07/15 01:19:29;;;;;;;1.98;1.82;;;;;;;31.87;29.28;99168.16;1888097;75;28159;-61
2022/07/15 01:22:18;;;;;;;2.00;1.90;;;;;;;31.85;29.22;99173.20;1892588;75;28229;-60
2022/07/15 01:25:08;;;;;;;1.90;1.80;;;;;;;31.85;29.30;99167.64;1849685;77;28213;-61
2022/07/15 01:27:57;;;;;;;4.25;1.80;;;;;;;31.86;29.27;99177.05;1831288;76;28265;-61
2022/07/15 01:30:47;;;;;;;1.90;1.80;;;;;;;31.84;29.30;99181.27;1850897;76;28207;-61
2022/07/15 01:33:38;;;;;;;1.90;1.80;;;;;;;31.83;29.39;99174.08;1854000;76;28367;-61
2022/07/15 01:36:27;;;;;;;1.93;1.83;;;;;;;31.82;29.42;99182.96;1881413;75;28239;-60
2022/07/15 01:39:17;;;;;;;2.00;1.90;;;;;;;31.83;29.47;99179.63;1881640;75;28191;-62
2022/07/15 01:42:05;;;;;;;1.90;1.80;;;;;;;31.84;29.47;99168.76;1893028;75;28105;-61
2022/07/15 01:44:55;;;;;;;1.80;1.70;;;;;;;31.85;29.51;99176.81;1885635;75;28278;-60
2022/07/15 01:47:45;;;;;;;1.75;1.65;;;;;;;31.86;29.44;99179.83;1883316;75;28286;-60
2022/07/15 01:50:37;;;;;;;1.57;1.55;;;;;;;31.85;29.44;99178.76;1883583;75;28221;-61
2022/07/15 01:53:29;;;;;;;1.80;1.60;;;;;;;31.85;29.48;99187.09;1884568;75;28356;-63
2022/07/15 01:56:17;;;;;;;1.67;1.60;;;;;;;31.82;29.49;99182.13;1880771;75;28147;-61
2022/07/15 01:59:06;;;;;;;1.70;1.60;;;;;;;31.84;29.50;99177.09;1874506;75;28127;-61
2022/07/15 02:01:57;;;;;;;1.90;1.80;;;;;;;31.85;29.47;99182.92;1895581;74;28192;-61
2022/07/15 02:04:46;;;;;;;1.55;1.50;;;;;;;31.83;29.49;99179.63;1896348;74;28165;-61
2022/07/15 02:07:34;;;;;;;1.60;1.50;;;;;;;31.83;29.50;99176.85;1900934;74;28143;-62
2022/07/15 02:10:23;;;;;;;1.77;1.67;;;;;;;31.85;29.41;99179.59;1896990;74;28482;-60
2022/07/15 02:13:14;;;;;;;1.30;1.30;;;;;;;31.85;29.41;99174.59;1902190;74;28700;-61
2022/07/15 02:16:05;;;;;;;1.60;1.50;;;;;;;31.82;29.38;99182.96;1899297;74;28152;-61
2022/07/15 02:18:55;;;;;;;1.97;1.40;;;;;;;31.82;29.32;99181.58;1913086;74;28538;-60
2022/07/15 02:21:44;;;;;;;1.50;1.40;;;;;;;31.83;29.28;99187.41;1905688;74;28121;-63
2022/07/15 02:24:32;;;;;;;1.40;1.40;;;;;;;31.84;29.25;99189.04;1898605;74;28172;-63
2022/07/15 02:27:21;;;;;;;1.42;1.42;;;;;;;31.83;29.18;99185.19;1843426;77;28249;-61
2022/07/15 02:30:11;;;;;;;1.50;1.40;;;;;;;31.75;29.26;99179.75;1844616;77;28212;-61
2022/07/15 02:33:01;;;;;;;1.37;1.37;;;;;;;31.83;29.21;99187.96;1845085;75;28224;-62
2022/07/15 02:35:50;;;;;;;1.43;1.40;;;;;;;31.82;29.13;99187.13;1895474;75;28065;-62
2022/07/15 02:38:41;;;;;;;1.33;1.23;;;;;;;31.79;29.10;99185.51;1906134;74;28170;-60
2022/07/15 02:41:30;;;;;;;1.30;1.30;;;;;;;31.78;29.08;99191.65;1890396;74;28136;-60
2022/07/15 02:44:21;;;;;;;1.55;1.50;;;;;;;31.80;28.97;99190.78;1897153;74;28185;-60
2022/07/15 02:47:10;;;;;;;1.30;1.30;;;;;;;31.82;28.93;99187.69;1892595;74;28158;-60
2022/07/15 02:50:00;;;;;;;1.50;1.40;;;;;;;31.82;28.92;99189.08;1891222;75;28260;-60
2022/07/15 02:52:49;;;;;;;1.30;1.30;;;;;;;31.81;28.84;99183.28;1892457;75;28119;-60
2022/07/15 02:55:37;;;;;;;1.37;1.37;;;;;;;31.79;28.88;99179.39;1892380;75;28102;-61
2022/07/15 02:58:27;;;;;;;1.32;1.32;;;;;;;31.81;28.90;99181.89;1892886;74;28282;-60
2022/07/15 03:01:15;;;;;;;1.37;1.37;;;;;;;31.78;28.94;99180.54;1925286;73;28017;-61
2022/07/15 03:04:04;;;;;;;1.25;1.25;;;;;;;31.75;28.95;99180.30;1902310;74;28094;-60
2022/07/15 03:06:52;;;;;;;1.40;1.30;;;;;;;31.76;28.99;99187.52;1905841;74;28083;-55
2022/07/15 03:09:41;;;;;;;1.30;1.30;;;;;;;31.74;29.05;99177.28;1893483;74;28223;-57
2022/07/15 03:12:29;;;;;;;1.30;1.30;;;;;;;31.72;29.14;99180.34;1895870;74;28233;-56
2022/07/15 03:15:18;;;;;;;1.30;1.30;;;;;;;31.71;29.24;99185.66;1893339;74;28130;-57
2022/07/15 03:18:07;;;;;;;1.32;1.25;;;;;;;31.73;29.25;99179.78;1895500;74;33243;-53
2022/07/15 03:20:56;;;;;;;1.30;1.30;;;;;;;31.72;29.28;99183.68;1892124;74;28283;-55
2022/07/15 03:23:44;;;;;;;1.40;1.40;;;;;;;31.67;29.35;99183.20;1911659;74;28588;-57
2022/07/15 03:26:33;;;;;;;1.27;1.27;;;;;;;31.68;29.38;99193.20;1892758;74;28082;-55
2022/07/15 03:29:22;;;;;;;1.20;1.10;;;;;;;31.67;29.41;99185.17;1892027;75;28172;-55
2022/07/15 03:32:15;;;;;;;1.50;1.30;;;;;;;31.68;29.47;99187.64;1911377;74;28039;-54
2022/07/15 03:35:05;;;;;;;1.20;1.20;;;;;;;31.66;29.55;99188.51;1914967;74;28164;-53
2022/07/15 03:37:55;;;;;;;1.20;1.20;;;;;;;31.66;29.56;99187.68;1895278;74;28113;-56
2022/07/15 03:40:43;;;;;;;1.40;1.30;;;;;;;31.67;29.58;99190.73;1904186;74;28129;-55
2022/07/15 03:43:31;;;;;;;1.22;1.22;;;;;;;31.68;29.62;99193.75;1894745;75;28187;-56
2022/07/15 03:46:20;;;;;;;1.30;1.30;;;;;;;31.68;29.62;99190.42;1900205;74;28134;-56
2022/07/15 03:49:10;;;;;;;1.00;1.00;;;;;;;31.70;29.63;99203.99;1891676;74;28239;-57
2022/07/15 03:51:59;;;;;;;1.40;1.30;;;;;;;31.70;29.66;99197.88;1902054;74;28125;-56
2022/07/15 03:54:48;;;;;;;1.45;1.40;;;;;;;31.69;29.68;99203.75;1915898;74;28131;-56
2022/07/15 03:57:37;;;;;;;1.32;1.32;;;;;;;31.64;29.76;99205.21;1908373;74;28051;-55
2022/07/15 04:00:26;;;;;;;1.30;1.30;;;;;;;31.64;29.78;99206.05;1893123;74;28122;-57
2022/07/15 04:03:14;;;;;;;1.40;1.30;;;;;;;31.64;29.81;99206.05;1895524;74;28275;-56
2022/07/15 04:06:03;;;;;;;1.43;1.33;;;;;;;31.67;29.83;99217.11;1893255;74;28215;-57
2022/07/15 04:08:54;;;;;;;1.25;1.20;;;;;;;31.67;29.79;99215.14;1892365;75;28167;-58
2022/07/15 04:11:44;;;;;;;1.20;1.20;;;;;;;31.68;29.79;99216.80;1896068;74;28306;-55
2022/07/15 04:14:33;;;;;;;1.45;1.20;;;;;;;31.70;29.80;99212.33;1903127;74;28146;-56
2022/07/15 04:17:21;;;;;;;1.30;1.10;;;;;;;31.67;29.83;99211.56;1892830;74;28090;-56
2022/07/15 04:20:12;;;;;;;1.20;1.20;;;;;;;31.64;29.93;99212.16;1895736;73;28088;-57
2022/07/15 04:23:02;;;;;;;1.25;1.25;;;;;;;31.66;29.89;99214.89;1906291;74;28271;-57
2022/07/15 04:25:54;;;;;;;1.20;1.20;;;;;;;31.65;29.88;99220.17;1892443;74;28090;-56
2022/07/15 04:28:42;;;;;;;1.25;1.25;;;;;;;31.68;29.88;99221.52;1898033;73;28186;-56
2022/07/15 04:31:32;;;;;;;1.10;1.10;;;;;;;31.64;29.95;99215.77;1896651;74;28130;-56
2022/07/15 04:34:22;;;;;;;1.47;1.37;;;;;;;31.63;30.00;99216.87;1892297;75;28211;-56
2022/07/15 04:37:11;;;;;;;1.30;1.30;;;;;;;31.61;29.99;99215.52;1901084;74;28279;-56
2022/07/15 04:40:00;;;;;;;1.70;1.20;;;;;;;31.59;30.03;99214.45;1904597;74;28091;-56
2022/07/15 04:42:49;;;;;;;1.27;1.27;;;;;;;31.59;30.08;99213.61;1906330;74;28134;-56
2022/07/15 04:45:38;;;;;;;1.10;1.10;;;;;;;31.59;30.05;99221.39;1893908;75;28184;-57
2022/07/15 04:51:34;;;;;;;1.20;1.20;;;;;;;31.57;30.06;99213.92;1910706;74;28025;-58
2022/07/15 04:54:22;;;;;;;1.20;1.20;;;;;;;31.57;30.12;99225.59;1893013;75;28153;-57
2022/07/15 04:57:17;;;;;;;1.25;1.25;;;;;;;31.58;30.09;99227.25;1896135;74;28149;-55
2022/07/15 05:00:04;;;;;;;1.20;1.20;;;;;;;31.61;30.06;99220.52;1892565;75;28193;-56
2022/07/15 05:02:54;;;;;;;1.32;1.32;;;;;;;31.63;30.08;99218.27;1911994;74;28024;-57
2022/07/15 05:05:43;;;;;;;1.12;1.12;;;;;;;31.59;30.10;99213.06;1833773;76;28292;-57
2022/07/15 05:08:33;;;;;;;1.32;1.32;;;;;;;31.62;30.15;99218.02;1920373;73;28703;-58
2022/07/15 05:11:22;;;;;;;1.05;1.05;;;;;;;31.63;30.18;99221.59;1902777;75;28273;-57
2022/07/15 05:14:11;;;;;;;1.27;1.27;;;;;;;31.61;30.19;99219.69;1902606;73;28100;-55
2022/07/15 05:17:01;;;;;;;1.20;1.20;;;;;;;31.62;30.14;99221.36;1918692;73;28111;-56
2022/07/15 05:19:50;;;;;;;1.57;1.20;;;;;;;31.62;30.15;99222.74;1905708;73;28133;-56
2022/07/15 05:22:43;;;;;;;1.15;1.15;;;;;;;31.62;30.19;99218.02;1910239;73;28222;-55
2022/07/15 05:25:32;;;;;;;1.20;1.20;;;;;;;31.62;30.15;99219.41;1921281;73;28062;-56
2022/07/15 05:28:21;;;;;;;1.55;1.32;;;;;;;31.61;30.21;99221.08;1902459;73;28110;-56
2022/07/15 05:31:10;;;;;;;1.37;1.37;;;;;;;31.61;30.26;99223.86;1902519;75;28102;-55
2022/07/15 05:33:59;;;;;;;1.30;1.20;;;;;;;31.61;30.23;99226.08;1905385;73;28094;-56
2022/07/15 05:36:48;;;;;;;1.47;1.37;;;;;;;31.61;30.24;99221.08;1911149;73;28052;-57
2022/07/15 05:39:53;;;;;;;1.30;1.30;;;;;;;31.66;30.23;99227.39;1901584;75;28130;-57
2022/07/15 05:42:28;;;;;;;1.30;1.30;;;;;;;31.63;30.22;99224.37;1901511;73;28149;-56
2022/07/15 05:45:17;;;;;;;1.30;1.30;;;;;;;31.60;30.31;99227.78;1905143;73;28105;-57
2022/07/15 05:48:09;;;;;;;1.03;1.03;;;;;;;31.61;30.31;99226.63;1931751;73;28097;-56
2022/07/15 05:50:59;;;;;;;1.10;1.10;;;;;;;31.60;30.33;99224.41;1909455;73;28167;-57
2022/07/15 05:53:48;;;;;;;1.00;1.00;;;;;;;31.67;30.24;99228.22;1903571;75;28554;-57
2022/07/15 05:56:36;;;;;;;1.22;1.22;;;;;;;31.65;30.28;99231.87;1903581;73;28110;-56
2022/07/15 05:59:24;;;;;;;1.20;1.20;;;;;;;31.63;30.29;99229.38;1903569;73;28024;-57
2022/07/15 06:02:13;;;;;;;1.30;1.30;;;;;;;31.69;30.31;99232.91;1911774;73;28149;-55
2022/07/15 06:05:03;;;;;;;1.30;1.30;;;;;;;31.63;30.35;99227.98;1900872;75;28137;-56
2022/07/15 06:07:51;;;;;;;1.20;1.20;;;;;;;31.66;30.33;99225.17;1896981;74;28054;-54
2022/07/15 06:10:43;;;;;;;1.40;1.40;;;;;;;31.63;30.35;99225.77;1899775;74;28157;-56
2022/07/15 06:13:31;;;;;;;1.23;1.17;;;;;;;31.64;30.36;99225.48;1890695;74;28122;-57
2022/07/15 06:16:20;;;;;;;1.32;1.20;;;;;;;31.62;30.39;99226.35;1913193;74;28187;-56
2022/07/15 06:19:10;;;;;;;1.20;1.20;;;;;;;31.59;30.35;99228.33;1898577;74;28182;-59
2022/07/15 06:21:59;;;;;;;2.17;1.57;;;;;;;31.58;30.27;99230.83;1905182;74;28067;-58
2022/07/15 06:24:47;;;;;;;1.90;1.50;;;;;;;31.56;30.09;99226.14;1893388;74;28282;-59
2022/07/15 06:27:37;;;;;;;1.37;1.37;;;;;;;31.53;30.00;99224.55;1911863;74;28226;-59
2022/07/15 06:30:26;;;;;;;1.47;1.42;;;;;;;31.48;29.90;99219.06;1893057;75;28229;-58
2022/07/15 06:33:15;;;;;;;1.60;1.50;;;;;;;31.44;29.88;99218.02;1906880;74;28278;-59
2022/07/15 06:36:04;;;;;;;1.45;1.35;;;;;;;31.47;29.84;99216.84;1894626;74;30938;-57
2022/07/15 06:38:53;;;;;;;2.10;1.50;;;;;;;31.45;29.77;99210.77;1897490;74;28171;-56
2022/07/15 06:41:41;;;;;;;1.50;1.40;;;;;;;31.44;29.78;99214.66;1895371;74;28838;-58
2022/07/15 06:44:31;;;;;;;1.80;1.70;;;;;;;31.38;29.77;99205.56;1901626;74;28223;-59
2022/07/15 06:47:21;;;;;;;1.62;1.52;;;;;;;31.31;29.77;99207.89;1895942;74;28153;-59
2022/07/15 06:50:11;;;;;;;1.80;1.60;;;;;;;31.33;29.74;99206.19;1896647;74;38432;-58
2022/07/15 06:53:02;;;;;;;1.62;1.52;;;;;;;31.26;29.76;99202.41;1907674;74;32082;-57
2022/07/15 06:55:50;;;;;;;1.67;1.57;;;;;;;31.22;29.73;99204.14;1900953;74;28094;-57
2022/07/15 06:58:39;;;;;;;1.80;1.70;;;;;;;31.25;29.68;99204.91;1904917;74;28180;-55
2022/07/15 07:01:28;;;;;;;1.77;1.67;;;;;;;31.26;29.73;99207.13;1907348;74;28022;-57
2022/07/15 07:04:17;;;;;;;1.90;1.80;;;;;;;31.24;29.92;99206.05;1894462;75;28188;-55
2022/07/15 07:07:06;;;;;;;2.12;1.50;;;;;;;31.26;29.93;99199.63;1905718;74;28656;-58
2022/07/15 07:09:54;;;;;;;1.50;1.50;;;;;;;31.24;30.12;99188.00;1894216;75;28019;-58
2022/07/15 07:12:44;;;;;;;1.70;1.60;;;;;;;31.30;30.23;99199.28;1897413;74;28303;-57
2022/07/15 07:15:32;;;;;;;1.70;1.60;;;;;;;31.32;30.26;99197.62;1893028;75;28143;-59
2022/07/15 07:18:20;;;;;;;1.98;1.80;;;;;;;31.36;30.32;99203.66;1893254;74;28276;-58
2022/07/15 07:21:12;;;;;;;1.60;1.50;;;;;;;31.37;30.36;99198.35;1894358;75;28077;-57
2022/07/15 07:24:01;;;;;;;1.50;1.40;;;;;;;31.37;30.46;99202.52;1894165;75;28088;-57
2022/07/15 07:26:50;;;;;;;1.77;1.60;;;;;;;31.41;30.55;99201.37;1889341;75;28214;-58
2022/07/15 07:29:38;;;;;;;2.05;1.50;;;;;;;31.40;30.65;99197.77;1896437;75;32014;-57
2022/07/15 07:32:27;;;;;;;1.70;1.60;;;;;;;31.44;30.66;99199.39;1911578;74;28275;-58
2022/07/15 07:35:15;;;;;;;1.70;1.60;;;;;;;31.46;30.74;99198.52;1905294;74;28196;-58
2022/07/15 07:38:03;;;;;;;1.60;1.50;;;;;;;31.47;30.75;99200.74;1892453;74;28189;-57
2022/07/15 07:40:52;;;;;;;1.60;1.50;;;;;;;31.48;30.91;99203.24;1902890;74;28310;-57
2022/07/15 07:43:41;;;;;;;1.67;1.57;;;;;;;31.48;31.04;99195.47;1899011;74;28101;-55
2022/07/15 07:46:29;;;;;;;1.60;1.50;;;;;;;31.50;31.21;99194.04;1897822;74;28140;-57
2022/07/15 07:49:18;;;;;;;2.50;1.70;;;;;;;31.49;31.42;99191.55;1901219;73;28139;-56
2022/07/15 07:52:06;;;;;;;1.85;1.67;;;;;;;31.53;31.48;99195.39;1907851;73;28160;-56
2022/07/15 07:54:55;;;;;;;1.52;1.52;;;;;;;31.55;31.57;99197.30;1894595;75;28133;-56
2022/07/15 07:57:55;;;;;;;1.75;1.65;;;;;;;31.53;31.72;99189.84;1894705;74;28097;-55
2022/07/15 08:00:44;;;;;;;2.20;1.60;;;;;;;31.55;31.81;99192.58;1892459;73;28261;-57
2022/07/15 08:03:33;;;;;;;1.40;1.30;;;;;;;31.57;31.89;99196.44;1902399;74;28179;-57
2022/07/15 08:06:22;;;;;;;1.55;1.45;;;;;;;31.60;31.95;99191.67;1902376;74;28585;-56
2022/07/15 08:09:10;;;;;;;1.80;1.47;;;;;;;31.61;32.01;99188.59;1895575;74;28198;-57
2022/07/15 08:11:59;;;;;;;1.60;1.50;;;;;;;31.59;32.12;99188.62;1894961;74;28125;-57
2022/07/15 08:14:50;;;;;;;1.60;1.50;;;;;;;31.58;32.16;99189.18;1894682;74;28135;-57
2022/07/15 08:17:39;;;;;;;1.93;1.50;;;;;;;31.62;32.23;99183.86;1909873;74;28334;-59
2022/07/15 08:20:27;;;;;;;1.50;1.40;;;;;;;31.62;32.31;99182.47;1900487;74;28216;-57
2022/07/15 08:23:20;;;;;;;1.30;1.30;;;;;;;31.64;32.36;99177.44;1905870;74;28199;-58
2022/07/15 08:26:07;;;;;;;1.60;1.50;;;;;;;31.66;32.41;99177.95;1892136;74;28098;-59
2022/07/15 08:28:56;;;;;;;2.52;1.42;;;;;;;31.65;32.45;99176.33;1894238;73;28683;-58
2022/07/15 08:31:44;;;;;;;1.60;1.50;;;;;;;31.60;32.53;99161.13;1900645;73;28172;-57
2022/07/15 08:34:33;;;;;;;1.95;1.50;;;;;;;31.66;32.59;99173.23;1905458;74;28531;-57
2022/07/15 08:37:21;;;;;;;1.67;1.40;;;;;;;31.68;32.60;99170.14;1907679;74;28170;-55
2022/07/15 08:40:11;;;;;;;2.00;1.40;;;;;;;31.66;32.69;99164.91;1895851;73;28378;-57
2022/07/15 08:43:00;;;;;;;1.57;1.40;;;;;;;31.68;32.71;99161.26;1906780;74;28695;-56
2022/07/15 08:45:49;;;;;;;1.50;1.40;;;;;;;31.68;32.75;99154.31;1892937;74;28098;-58
2022/07/15 08:48:40;;;;;;;2.00;1.40;;;;;;;31.72;32.79;99151.73;1917845;74;28823;-57
2022/07/15 08:51:31;;;;;;;1.40;1.40;;;;;;;31.71;32.77;99144.55;1892403;75;28204;-57
2022/07/15 08:54:19;;;;;;;1.50;1.40;;;;;;;31.69;32.82;99144.86;1893103;74;28123;-57
2022/07/15 08:57:08;;;;;;;1.87;1.40;;;;;;;31.68;32.90;99156.26;1897234;74;28135;-56
2022/07/15 08:59:56;;;;;;;1.30;1.30;;;;;;;31.70;32.89;99159.55;1907129;73;28026;-55
2022/07/15 09:02:46;;;;;;;1.40;1.40;;;;;;;31.70;33.03;99147.89;1892695;73;28191;-58
2022/07/15 09:05:36;;;;;;;1.80;1.40;;;;;;;31.72;33.05;99133.69;1898666;74;28058;-52
2022/07/15 09:08:25;;;;;;;1.57;1.47;;;;;;;31.76;33.09;99144.47;1894930;73;28162;-56
2022/07/15 09:11:13;;;;;;;1.30;1.30;;;;;;;31.78;33.17;99139.43;1907581;73;28213;-54
2022/07/15 09:14:05;;;;;;;1.10;1.10;;;;;;;31.77;33.25;99140.55;1914778;73;28072;-56
2022/07/15 09:17:12;;;;;;;1.30;1.30;;;;;;;31.78;33.34;99133.31;1917273;73;28626;-63
2022/07/15 09:20:07;;;;;;;1.65;1.10;;;;;;;31.79;33.39;99125.78;1922798;73;28094;-50
2022/07/15 09:22:59;;;;;;;1.80;1.47;;;;;;;31.76;33.62;99127.80;1905684;73;28193;-51
2022/07/15 09:25:49;;;;;;;1.52;1.42;;;;;;;31.78;33.56;99126.93;1902655;73;28218;-53
2022/07/15 09:28:40;;;;;;;1.50;1.40;;;;;;;31.79;33.49;99128.56;1912031;73;28448;-52
2022/07/15 09:35:04;;;;;;;1.42;1.32;;;;;;;31.78;33.42;99123.59;1903466;73;28102;-52
2022/07/15 09:38:00;;;;;;;1.77;1.10;;;;;;;31.75;33.46;99128.36;1902943;75;28041;-51
2022/07/15 09:40:50;;;;;;;2.05;1.37;;;;;;;31.75;33.42;99120.03;1902533;75;28523;-53
2022/07/15 09:43:47;;;;;;;1.47;1.37;;;;;;;31.77;33.43;99109.99;1929536;73;28026;-50
2022/07/15 09:46:50;;;;;;;1.30;1.20;;;;;;;31.79;33.33;99108.56;1902609;73;28131;-51
2022/07/15 09:49:38;;;;;;;1.60;1.20;;;;;;;31.79;33.33;99113.28;1901764;73;28153;-51
2022/07/15 09:52:28;;;;;;;1.27;1.27;;;;;;;31.78;33.30;99111.09;1901768;75;28141;-52
2022/07/15 09:55:17;;;;;;;1.42;1.32;;;;;;;31.79;33.30;99103.00;1909498;73;28124;-47
2022/07/15 09:58:07;;;;;;;1.20;1.20;;;;;;;31.74;33.32;99093.37;1914252;73;28001;-51
2022/07/15 10:00:56;;;;;;;1.30;1.27;;;;;;;31.80;33.39;99101.89;1903296;73;29224;-50
2022/07/15 10:03:44;;;;;;;1.50;1.30;;;;;;;31.79;33.41;99100.78;1902087;73;28137;-50
2022/07/15 10:06:43;;;;;;;1.20;1.20;;;;;;;31.82;33.43;99086.30;1909983;73;28133;-53
2022/07/15 10:09:30;;;;;;;1.27;1.10;;;;;;;31.83;33.32;99090.17;1914445;73;28077;-51
2022/07/15 10:12:25;;;;;;;1.30;1.20;;;;;;;31.76;33.42;99085.58;1905025;73;28036;-49
2022/07/15 10:15:41;;;;;;;1.30;1.30;;;;;;;31.81;33.39;99093.80;1902205;73;28127;-50
2022/07/15 10:18:55;;;;;;;1.20;1.10;;;;;;;31.82;33.31;99081.57;1902977;75;28090;-50
2022/07/15 10:22:07;;;;;;;2.70;1.17;;;;;;;31.78;33.36;99080.54;1902823;75;28104;-51
2022/07/15 10:25:05;;;;;;;1.17;1.17;;;;;;;31.77;33.39;99080.27;1902480;75;28797;-52
2022/07/15 10:28:18;;;;;;;1.10;1.10;;;;;;;31.75;33.34;99084.48;1923692;73;28023;-53
2022/07/15 10:31:21;;;;;;;1.10;1.10;;;;;;;31.75;33.23;99083.92;1918261;73;28068;-51
2022/07/15 10:34:16;;;;;;;3.95;1.30;;;;;;;31.75;33.11;99083.09;1918280;73;28540;-54
2022/07/15 10:37:07;;;;;;;1.27;1.27;;;;;;;31.74;32.92;99084.23;1901868;73;28185;-48
2022/07/15 10:40:09;;;;;;;1.35;1.30;;;;;;;31.75;32.77;99090.86;1902453;75;28085;-51
2022/07/15 10:43:01;;;;;;;2.30;1.20;;;;;;;31.78;32.55;99098.59;1909252;73;28194;-50
2022/07/15 10:46:07;;;;;;;1.10;1.10;;;;;;;31.79;32.41;99099.39;1908092;73;28099;-51
2022/07/15 10:49:04;;;;;;;1.62;1.12;;;;;;;31.81;32.24;99072.16;1914396;73;28079;-51
2022/07/15 10:51:53;;;;;;;1.10;1.10;;;;;;;31.79;32.19;99097.45;1902407;73;28538;-52
2022/07/15 10:54:50;;;;;;;1.22;1.22;;;;;;;31.82;32.06;99076.02;1909680;73;28093;-53
2022/07/15 10:57:45;;;;;;;1.10;1.10;;;;;;;31.82;32.01;99101.58;1903684;75;28137;-49
2022/07/15 11:00:37;;;;;;;1.30;1.20;;;;;;;31.83;31.90;99081.02;1911173;73;28136;-53
2022/07/15 11:03:25;;;;;;;2.23;1.37;;;;;;;31.83;31.79;99076.28;1903689;75;28086;-51
2022/07/15 11:06:15;;;;;;;1.20;1.20;;;;;;;31.85;31.58;99094.86;1903730;75;28112;-52
2022/07/15 11:09:03;;;;;;;1.70;1.22;;;;;;;31.88;31.47;99105.34;1922909;73;28058;-51
2022/07/15 11:11:52;;;;;;;1.10;1.10;;;;;;;31.86;31.39;99078.43;1920889;73;28541;-52
2022/07/15 11:14:50;;;;;;;1.20;1.20;;;;;;;31.91;31.27;99067.78;1908473;73;28189;-51
2022/07/15 11:17:41;;;;;;;1.25;1.17;;;;;;;31.89;31.30;99082.00;1924371;73;28105;-53
2022/07/15 11:20:35;;;;;;;1.37;1.27;;;;;;;31.89;31.21;99070.05;1912208;73;28201;-52
2022/07/15 11:23:26;;;;;;;1.47;1.40;;;;;;;31.89;31.14;99041.71;1918588;73;28055;-53
2022/07/15 11:26:15;;;;;;;1.20;1.20;;;;;;;31.90;31.03;99054.45;1915992;73;34994;-52
2022/07/15 11:29:03;;;;;;;1.60;1.20;;;;;;;31.90;30.98;99057.82;1909877;73;28028;-48
2022/07/15 11:31:53;;;;;;;1.15;1.15;;;;;;;31.90;30.87;99080.84;1902640;75;28111;-51
2022/07/15 11:34:44;;;;;;;1.20;1.20;;;;;;;31.92;30.74;99063.89;1903407;75;28132;-49
2022/07/15 11:37:36;;;;;;;1.32;1.30;;;;;;;31.93;30.73;99055.80;1903980;75;28157;-53
2022/07/15 11:46:41;;;;;;;1.10;1.10;;;;;;;31.93;30.67;99064.96;1926828;73;28158;-49
2022/07/15 11:49:32;;;;;;;1.40;1.30;;;;;;;31.90;30.67;99021.70;1902968;73;28408;-50
2022/07/15 11:52:26;;;;;;;1.10;1.10;;;;;;;31.90;30.60;99020.31;1932180;73;28064;-49
2022/07/15 11:55:14;;;;;;;1.30;1.20;;;;;;;31.94;30.56;99016.61;1901433;75;28130;-51
2022/07/15 11:58:02;;;;;;;1.12;1.12;;;;;;;31.97;30.32;99023.55;1903824;73;28133;-51
2022/07/15 12:00:51;;;;;;;1.15;1.15;;;;;;;31.97;30.27;99035.45;1919218;73;28116;-53
2022/07/15 12:03:49;;;;;;;1.30;1.30;;;;;;;32.01;30.08;99010.11;1932236;73;28135;-55
2022/07/15 12:06:38;;;;;;;1.20;1.20;;;;;;;32.01;30.01;99038.45;1901580;75;28194;-48
2022/07/15 12:09:27;;;;;;;1.10;1.10;;;;;;;32.01;29.98;99014.84;1902242;75;28185;-50
2022/07/15 12:12:17;;;;;;;1.10;1.10;;;;;;;32.02;29.79;98986.73;1840725;76;28274;-52
2022/07/15 12:15:06;;;;;;;1.60;1.10;;;;;;;32.01;29.70;98994.83;1919362;73;28120;-52
2022/07/15 12:17:55;;;;;;;2.50;1.10;;;;;;;32.01;29.54;99002.34;1902176;75;28032;-52
2022/07/15 12:20:45;;;;;;;1.30;1.30;;;;;;;31.98;29.25;99014.06;1911803;73;28047;-52
2022/07/15 12:23:34;;;;;;;1.00;1.00;;;;;;;31.93;29.12;99005.78;1918910;73;28117;-54
2022/07/15 12:26:23;;;;;;;1.10;1.10;;;;;;;32.01;29.12;99000.95;1901777;75;28149;-52
2022/07/15 12:29:12;;;;;;;1.05;1.05;;;;;;;32.00;28.72;99020.13;1933412;73;28119;-49
2022/07/15 12:32:06;;;;;;;1.20;1.20;;;;;;;32.00;28.26;99012.63;1906242;73;28140;-53
2022/07/15 12:34:57;;;;;;;1.27;1.03;;;;;;;32.03;28.35;98987.56;1916344;73;28017;-51
2022/07/15 12:37:50;;;;;;;1.22;1.10;;;;;;;32.02;28.19;98990.91;1903078;75;28023;-50
2022/07/15 12:40:39;;;;;;;1.30;1.12;;;;;;;32.03;28.16;98989.78;1902671;75;28192;-51
2022/07/15 12:43:48;;;;;;;1.17;1.17;;;;;;;32.03;27.98;99006.45;1906542;73;28157;-48
2022/07/15 12:46:58;;;;;;;1.02;1.02;;;;;;;32.08;27.85;98991.63;1911542;73;32982;-50
2022/07/15 12:49:52;;;;;;;1.30;1.20;;;;;;;32.07;27.84;99017.20;1901955;75;28211;-51
2022/07/15 12:52:41;;;;;;;1.10;1.10;;;;;;;32.06;27.73;99040.58;1903623;75;28251;-50
2022/07/15 12:55:38;;;;;;;1.07;1.07;;;;;;;32.08;27.57;98988.85;1903262;75;28125;-49
2022/07/15 12:58:29;;;;;;;1.00;1.00;;;;;;;32.14;27.63;98973.70;1914443;73;28088;-51
2022/07/15 13:01:18;;;;;;;1.20;1.20;;;;;;;32.16;27.69;98974.21;1906161;73;28164;-51
2022/07/15 13:04:06;;;;;;;1.60;1.07;;;;;;;32.17;27.78;98963.92;1935745;73;28090;-50
2022/07/15 13:06:54;;;;;;;1.30;1.20;;;;;;;32.18;27.83;98962.25;1921655;73;27999;-48
2022/07/15 13:09:44;;;;;;;1.15;1.15;;;;;;;32.19;27.96;98958.88;1902840;75;28087;-51
2022/07/15 13:12:33;;;;;;;1.10;1.10;;;;;;;32.19;28.04;98961.09;1892975;75;28362;-51
2022/07/15 13:15:21;;;;;;;1.00;1.00;;;;;;;32.20;28.15;98953.02;1897730;73;28023;-50
2022/07/15 13:18:10;;;;;;;3.00;1.22;;;;;;;32.19;28.24;98963.87;1878295;75;28300;-49
2022/07/15 13:21:00;;;;;;;1.35;1.25;;;;;;;32.15;28.41;98962.86;1872196;76;28089;-50
2022/07/15 13:23:48;;;;;;;1.10;1.10;;;;;;;32.18;28.53;98958.64;1887426;75;28179;-53
2022/07/15 13:26:36;;;;;;;1.10;1.10;;;;;;;32.18;28.63;98962.80;1882910;75;28031;-49
2022/07/15 13:29:24;;;;;;;1.00;1.00;;;;;;;32.19;28.74;98956.92;1895886;73;28507;-47
2022/07/15 13:32:13;;;;;;;1.10;1.10;;;;;;;32.20;28.80;98959.14;1872135;76;28614;-49
2022/07/15 13:35:02;;;;;;;1.37;1.10;;;;;;;32.16;28.88;98955.34;1886556;75;28016;-53